Aérodrome :
LOGIN :

S'inscrire | Disclaimer

   EN    FR    IT 

 










Légende :    VFR   VFR Marginal   IFR   IFR Intensif   IFR Très Intensif
Visi : 
Plafond : 
>= 8 km
>= 3000ft
5 à 8 km
1000 à 3000 ft
1500m à 5 km
500 à 1000 ft
800 à 1500m
200 à 500 ft
< 800m
< 200 ft
Symboles :   Orages  Brouillard  Fortes neiges  Fortes précipitations  Vent > 20 kt
SIGMETs :   Divers  Orages  Givrage  Turbulence  Onde Orograph.  Cendres Volcan.






- Altitude de l'aérodrome : 327 ft
- Code IATA : BHX


EGBB - Birmingham

DERNIER METAR :
  • 190350Z 16004KT 140V210 CAVOK 01/M01 Q1017

METARs EXPIRÉS :
  • 190320Z VRB03KT CAVOK 02/M01 Q1017
  • 190250Z 25006KT 210V280 CAVOK 03/M01 Q1017
  • 190220Z VRB02KT CAVOK 02/M01 Q1017
  • 190150Z 25005KT CAVOK 03/M00 Q1016

TAF AMD TAF EGBB
Valide du 19 à 03h jusqu'au 20 à 00h UTC


190357Z 1903/1924 26006KT 9999 FEW030
BECMG 1909/1912 20012KT
BECMG 1912/1915 FEW008 BKN012
TEMPO 1912/1924 6000 RA BKN008
PROB30
TEMPO 1918/1924 22016G26KT 4000 RADZ
ATIS : +44 121 780 0910



MET'MAP, la Météo Aéronautique d'un coup d'oeil ! - Copyright ORBIFLY Décembre 2007 - Disclaimer

ORBIFLY MET'MAP TEAM :

Programmation & Développement : Alexandra Zaïnal
Sur une idée originale de : Baudouin d'Aumeries
Assistance à la programmation : Marc-Olivier Méhu
Soutien technique & logistique : Manuel Goepfert

Contact : metmap@orbifly.com




SOURCES & CREDITS :

   NOAA